Terminal Aerodrome Forecast
Issued by NWS Omaha/Valley, NE

Home | Current Version | Previous Version | Text Only | Print | Product List | Glossary On
Versions: 1 2 3 4 5 6 7 8 9 10 11 12 13 14 15 16 17 18 19 20 21 22 23 24 25 26 27 28 29 30 31 32 33 34 35 36 37 38 39
000
FTUS43 KOAX 191729
TAFOMA
TAF
KOMA 191729Z 1918/2018 17016G22KT P6SM SCT250
     FM191900 18018G25KT P6SM SCT250
     FM200000 18013KT P6SM SCT250
     FM200600 20009KT 5SM HZ VCSH BKN080 PROB30 2006/2008 4SM TSRA
      BR BKN040CB
     FM201100 24007KT 5SM HZ BKN100
     FM201500 30007KT P6SM BKN250=

USA.gov is the U.S. government's official web portal to all federal, state and local government web resources and services.